createdAt,value
2018-09-30T00:01:48.849Z,65.37
2018-09-30T00:04:16.988Z,64.65
2018-09-30T00:06:45.175Z,65.43
2018-09-30T00:09:13.431Z,65.55
2018-09-30T00:11:41.731Z,65.98
2018-09-30T00:14:09.932Z,66.82
2018-09-30T00:16:38.142Z,67.61
2018-09-30T00:19:06.447Z,68.71
2018-09-30T00:21:34.624Z,67.93
2018-09-30T00:24:08.375Z,68.24
2018-09-30T00:26:42.325Z,67.82
2018-09-30T00:29:10.525Z,67.95
2018-09-30T00:31:38.655Z,67.98
2018-09-30T00:34:12.589Z,68.12
2018-09-30T00:36:40.694Z,69.05
2018-09-30T00:39:08.967Z,68.66
2018-09-30T00:41:37.749Z,69.23
2018-09-30T00:44:06.017Z,68.80
2018-09-30T00:46:34.265Z,69.63
2018-09-30T00:49:02.549Z,69.87
2018-09-30T00:51:30.797Z,69.80
2018-09-30T00:53:59.088Z,70.11
2018-09-30T00:56:27.219Z,70.24
2018-09-30T00:58:55.351Z,70.62
2018-09-30T01:01:23.489Z,70.46
2018-09-30T01:03:51.621Z,69.57
2018-09-30T01:06:19.989Z,70.05
2018-09-30T01:08:48.819Z,70.29
2018-09-30T01:11:17.023Z,70.43
2018-09-30T01:13:45.212Z,70.91
2018-09-30T01:16:13.522Z,70.42
2018-09-30T01:18:41.723Z,70.51
2018-09-30T01:21:10.002Z,71.08
2018-09-30T01:23:38.160Z,71.37
2018-09-30T01:26:06.580Z,71.65
2018-09-30T01:28:34.893Z,71.97
2018-09-30T01:31:03.198Z,72.22
2018-09-30T01:33:31.384Z,71.18
2018-09-30T01:35:59.602Z,71.00
2018-09-30T01:38:28.026Z,71.30
2018-09-30T01:40:56.172Z,71.98
2018-09-30T01:43:24.388Z,72.64
2018-09-30T01:45:52.598Z,72.75
2018-09-30T01:48:20.812Z,72.88
2018-09-30T01:50:49.004Z,72.78
2018-09-30T01:53:17.333Z,72.06
2018-09-30T01:55:45.529Z,70.58
2018-09-30T01:58:13.679Z,70.81
2018-09-30T02:00:41.832Z,70.99
2018-09-30T02:03:10.527Z,70.67
2018-09-30T02:05:38.793Z,71.41
2018-09-30T02:08:07.003Z,70.65
2018-09-30T02:10:35.207Z,70.58
2018-09-30T02:13:03.332Z,71.18
2018-09-30T02:15:31.467Z,70.74
2018-09-30T02:17:59.668Z,71.67
2018-09-30T02:20:27.826Z,71.46
2018-09-30T02:22:56.015Z,71.27
2018-09-30T02:25:24.182Z,71.41
2018-09-30T02:27:52.368Z,71.99
2018-09-30T02:30:20.550Z,71.62
2018-09-30T02:32:48.709Z,72.04
2018-09-30T02:35:16.847Z,73.04
2018-09-30T02:37:45.071Z,73.32
2018-09-30T02:40:13.193Z,74.04
2018-09-30T02:42:41.405Z,73.66
2018-09-30T02:45:09.565Z,73.50
2018-09-30T02:47:37.865Z,73.63
2018-09-30T02:50:06.167Z,73.28
2018-09-30T02:52:34.322Z,72.82
2018-09-30T02:55:02.626Z,73.21
2018-09-30T02:57:30.817Z,73.71
2018-09-30T02:59:58.946Z,73.56
2018-09-30T03:02:27.048Z,73.81
2018-09-30T03:04:55.237Z,74.21
2018-09-30T03:07:29.059Z,74.34
2018-09-30T03:09:57.186Z,73.70
2018-09-30T03:12:25.288Z,74.01
2018-09-30T03:14:53.470Z,74.85
2018-09-30T03:17:21.580Z,75.37
2018-09-30T03:19:49.891Z,75.42
2018-09-30T03:22:18.132Z,75.82
2018-09-30T03:24:46.829Z,74.83
2018-09-30T03:27:14.921Z,75.07
2018-09-30T03:29:43.027Z,75.70
2018-09-30T03:32:11.187Z,76.00
2018-09-30T03:34:39.363Z,75.88
2018-09-30T03:37:07.563Z,75.02
2018-09-30T03:39:36.100Z,74.94
2018-09-30T03:42:04.254Z,75.03
2018-09-30T03:44:32.484Z,75.39
2018-09-30T03:47:01.455Z,75.39
2018-09-30T03:49:29.756Z,74.77
2018-09-30T03:51:58.015Z,75.15
2018-09-30T03:54:26.245Z,75.00
2018-09-30T03:56:54.370Z,74.59
2018-09-30T03:59:22.890Z,74.62
2018-09-30T04:01:51.096Z,75.18
2018-09-30T04:04:20.071Z,75.48
2018-09-30T04:06:48.242Z,75.08
2018-09-30T04:09:16.448Z,75.04
2018-09-30T04:11:44.862Z,74.63
2018-09-30T04:14:13.105Z,74.98
2018-09-30T04:16:41.240Z,75.08
2018-09-30T04:19:09.379Z,74.26
2018-09-30T04:21:37.562Z,75.28
2018-09-30T04:24:10.542Z,74.59
2018-09-30T04:26:39.793Z,74.54
2018-09-30T04:29:08.097Z,74.57
2018-09-30T04:31:36.392Z,74.86
2018-09-30T04:34:04.814Z,74.19
2018-09-30T04:36:33.835Z,74.37
2018-09-30T04:39:02.527Z,73.93
2018-09-30T04:41:30.717Z,74.29
2018-09-30T04:43:58.931Z,74.79
2018-09-30T04:46:27.131Z,74.87
2018-09-30T04:48:55.347Z,75.07
2018-09-30T04:51:24.175Z,75.11
2018-09-30T04:53:52.397Z,75.40
2018-09-30T04:56:20.636Z,74.77
2018-09-30T04:58:49.445Z,74.67
2018-09-30T05:01:18.274Z,74.65
2018-09-30T05:03:46.426Z,74.07
2018-09-30T05:06:14.717Z,73.66
2018-09-30T05:08:42.927Z,73.30
2018-09-30T05:11:11.085Z,73.84
2018-09-30T05:13:39.196Z,74.41
2018-09-30T05:16:07.859Z,74.08
2018-09-30T05:18:35.987Z,73.59
2018-09-30T05:21:04.175Z,73.67
2018-09-30T05:23:32.441Z,73.76
2018-09-30T05:26:00.646Z,73.35
2018-09-30T05:28:28.901Z,73.27
2018-09-30T05:30:57.219Z,72.55
2018-09-30T05:33:25.440Z,72.04
2018-09-30T05:35:53.672Z,70.49
2018-09-30T05:38:21.916Z,70.84
2018-09-30T05:40:50.160Z,70.11
2018-09-30T05:43:18.386Z,69.47
2018-09-30T05:45:46.666Z,69.06
2018-09-30T05:48:14.870Z,69.05
2018-09-30T05:50:43.150Z,68.28
2018-09-30T05:53:11.350Z,67.80
2018-09-30T05:55:39.621Z,67.87
2018-09-30T05:58:08.378Z,68.29
2018-09-30T06:00:36.502Z,67.73
2018-09-30T06:03:04.650Z,68.35
2018-09-30T06:05:32.812Z,68.49
2018-09-30T06:08:01.013Z,68.77
2018-09-30T06:10:30.131Z,68.93
2018-09-30T06:12:58.334Z,67.69
2018-09-30T06:15:26.528Z,67.93
2018-09-30T06:17:54.812Z,68.08
2018-09-30T06:20:23.127Z,67.23
2018-09-30T06:22:51.289Z,66.47
2018-09-30T06:25:19.542Z,66.26
2018-09-30T06:27:48.031Z,65.75
2018-09-30T06:30:16.299Z,65.93
2018-09-30T06:32:44.650Z,65.35
2018-09-30T06:35:13.141Z,64.97
2018-09-30T06:37:41.310Z,64.27
2018-09-30T06:40:09.589Z,63.24
2018-09-30T06:42:37.720Z,63.76
2018-09-30T06:45:06.241Z,64.15
2018-09-30T06:47:34.321Z,62.72
2018-09-30T06:50:02.434Z,61.81
2018-09-30T06:52:30.609Z,61.73
2018-09-30T06:54:59.049Z,61.88
2018-09-30T06:57:27.229Z,61.61
2018-09-30T06:59:55.452Z,60.97
2018-09-30T07:02:23.595Z,61.05
2018-09-30T07:04:51.912Z,61.30
2018-09-30T07:07:20.107Z,60.92
2018-09-30T07:09:48.393Z,60.79
2018-09-30T07:12:16.511Z,59.89
2018-09-30T07:14:44.680Z,59.72
2018-09-30T07:17:13.021Z,59.49
2018-09-30T07:19:41.274Z,58.96
2018-09-30T07:22:09.507Z,58.55
2018-09-30T07:24:37.592Z,58.39
2018-09-30T07:27:05.820Z,58.83
2018-09-30T07:29:34.110Z,58.18
2018-09-30T07:32:02.423Z,57.42
2018-09-30T07:34:30.850Z,57.02
2018-09-30T07:36:59.174Z,57.67
2018-09-30T07:39:27.352Z,56.88
2018-09-30T07:41:55.795Z,56.36
2018-09-30T07:44:24.023Z,56.02
2018-09-30T07:46:52.232Z,55.14
2018-09-30T07:49:20.454Z,55.72
2018-09-30T07:51:48.634Z,54.72
2018-09-30T07:54:16.836Z,54.85
2018-09-30T07:56:45.346Z,54.50
2018-09-30T07:59:13.503Z,54.47
2018-09-30T08:01:41.674Z,53.80
2018-09-30T08:04:09.973Z,52.93
2018-09-30T08:06:38.273Z,53.19
2018-09-30T08:09:07.855Z,53.18
2018-09-30T08:11:36.123Z,52.93
2018-09-30T08:14:04.385Z,52.73
2018-09-30T08:16:32.890Z,52.08
2018-09-30T08:19:01.415Z,51.37
2018-09-30T08:21:29.692Z,51.79
2018-09-30T08:23:58.045Z,51.15
2018-09-30T08:26:26.260Z,50.51
2018-09-30T08:28:54.373Z,51.03
2018-09-30T08:31:22.578Z,49.71
2018-09-30T08:33:50.691Z,50.05
2018-09-30T08:36:18.861Z,48.94
2018-09-30T08:38:46.961Z,49.25
2018-09-30T08:41:15.145Z,49.10
2018-09-30T08:43:43.875Z,48.73
2018-09-30T08:46:12.021Z,47.91
2018-09-30T08:48:40.221Z,47.05
2018-09-30T08:51:08.451Z,46.18
2018-09-30T08:53:36.688Z,45.08
2018-09-30T08:56:05.060Z,45.86
2018-09-30T08:58:33.126Z,45.07
2018-09-30T09:01:01.457Z,45.33
2018-09-30T09:03:29.668Z,43.04
2018-09-30T09:05:57.814Z,35.52
2018-09-30T09:08:26.060Z,25.87
2018-09-30T09:10:54.214Z,21.20
2018-09-30T09:13:22.774Z,18.15
2018-09-30T09:15:51.054Z,14.70
2018-09-30T09:18:19.255Z,13.68
2018-09-30T09:20:47.521Z,12.27
2018-09-30T09:23:15.760Z,11.28
2018-09-30T09:25:44.094Z,10.98
2018-09-30T09:28:12.328Z,9.94
2018-09-30T09:30:40.738Z,10.73
2018-09-30T09:33:09.109Z,9.71
2018-09-30T09:35:37.192Z,9.36
2018-09-30T09:38:05.440Z,9.73
2018-09-30T09:40:34.452Z,10.37
2018-09-30T09:43:02.692Z,9.16
2018-09-30T09:45:30.871Z,8.56
2018-09-30T09:47:59.171Z,8.42
2018-09-30T09:50:28.071Z,8.36
2018-09-30T09:52:57.000Z,8.22
2018-09-30T09:55:25.219Z,7.64
2018-09-30T09:57:53.434Z,8.09
2018-09-30T10:00:27.363Z,8.90
2018-09-30T10:02:56.249Z,10.04
2018-09-30T10:05:24.571Z,9.51
2018-09-30T10:07:52.949Z,8.59
2018-09-30T10:10:21.222Z,8.81
2018-09-30T10:12:49.566Z,8.56
2018-09-30T10:15:17.834Z,8.66
2018-09-30T10:17:46.080Z,7.25
2018-09-30T10:20:14.566Z,6.71
2018-09-30T10:22:42.855Z,7.38
2018-09-30T10:25:11.069Z,6.36
2018-09-30T10:27:39.264Z,6.35
2018-09-30T10:30:07.637Z,6.17
2018-09-30T10:32:35.913Z,6.17
2018-09-30T10:35:04.481Z,5.44
2018-09-30T10:37:32.865Z,5.62
2018-09-30T10:40:01.109Z,5.50
2018-09-30T10:42:29.721Z,4.92
2018-09-30T10:44:57.956Z,5.33
2018-09-30T10:47:26.107Z,6.28
2018-09-30T10:49:54.315Z,7.70
2018-09-30T10:52:23.009Z,10.24
2018-09-30T10:54:51.239Z,12.31
2018-09-30T10:57:19.538Z,12.77
2018-09-30T10:59:47.845Z,10.34
2018-09-30T11:02:16.373Z,8.83
2018-09-30T11:04:44.549Z,8.00
2018-09-30T11:07:13.090Z,7.18
2018-09-30T11:09:41.330Z,6.86
2018-09-30T11:12:09.601Z,6.66
2018-09-30T11:14:37.973Z,6.18
2018-09-30T11:17:06.311Z,5.87
2018-09-30T11:19:34.515Z,5.19
2018-09-30T11:22:02.672Z,5.56
2018-09-30T11:24:30.847Z,5.40
2018-09-30T11:26:59.289Z,5.30
2018-09-30T11:29:27.514Z,5.03
2018-09-30T11:31:55.808Z,4.56
2018-09-30T11:34:23.887Z,5.00
2018-09-30T11:36:52.565Z,4.76
2018-09-30T11:39:21.748Z,4.67
2018-09-30T11:41:50.038Z,4.22
2018-09-30T11:44:18.312Z,4.01
2018-09-30T11:46:46.778Z,4.87
2018-09-30T11:49:15.018Z,4.95
2018-09-30T11:51:43.224Z,4.09
2018-09-30T11:54:11.552Z,4.41
2018-09-30T11:56:39.888Z,4.54
2018-09-30T11:59:08.136Z,4.12
2018-09-30T12:01:36.392Z,4.28
2018-09-30T12:04:04.638Z,3.82
2018-09-30T12:06:32.816Z,4.29
2018-09-30T12:09:01.028Z,4.05
2018-09-30T12:11:29.249Z,3.96
2018-09-30T12:13:57.814Z,4.24
2018-09-30T12:16:26.106Z,4.09
2018-09-30T12:18:54.437Z,5.23
2018-09-30T12:21:22.710Z,4.64
2018-09-30T12:23:50.967Z,4.70
2018-09-30T12:26:19.226Z,4.29
2018-09-30T12:28:47.363Z,8.15
2018-09-30T12:31:16.247Z,5.79
2018-09-30T12:33:44.491Z,5.70
2018-09-30T12:36:12.758Z,5.82
2018-09-30T12:38:40.945Z,5.36
2018-09-30T12:41:09.200Z,4.83
2018-09-30T12:43:37.622Z,4.24
2018-09-30T12:46:05.795Z,4.49
2018-09-30T12:48:34.045Z,4.87
2018-09-30T12:51:02.316Z,4.51
2018-09-30T12:53:30.498Z,4.68
2018-09-30T12:55:58.668Z,5.15
2018-09-30T12:58:26.912Z,5.08
2018-09-30T13:00:55.126Z,4.85
2018-09-30T13:03:23.493Z,5.08
2018-09-30T13:05:51.741Z,6.48
2018-09-30T13:08:20.076Z,8.89
2018-09-30T13:10:48.451Z,8.96
2018-09-30T13:13:16.579Z,8.01
2018-09-30T13:15:44.953Z,6.60
2018-09-30T13:18:13.053Z,6.17
2018-09-30T13:20:41.420Z,6.02
2018-09-30T13:23:09.583Z,6.14
2018-09-30T13:25:37.830Z,7.16
2018-09-30T13:28:06.233Z,6.74
2018-09-30T13:30:35.785Z,8.00
2018-09-30T13:33:04.555Z,7.27
2018-09-30T13:35:32.926Z,6.73
2018-09-30T13:38:01.218Z,6.35
2018-09-30T13:40:30.147Z,5.79
2018-09-30T13:42:59.721Z,6.00
2018-09-30T13:45:27.901Z,5.66
2018-09-30T13:47:56.154Z,5.92
2018-09-30T13:50:24.454Z,6.34
2018-09-30T13:52:53.261Z,6.48
2018-09-30T13:55:21.911Z,7.12
2018-09-30T13:57:50.120Z,7.73
2018-09-30T14:00:18.394Z,7.99
2018-09-30T14:02:46.708Z,8.69
2018-09-30T14:05:15.052Z,8.66
2018-09-30T14:07:43.188Z,8.76
2018-09-30T14:10:11.410Z,8.18
2018-09-30T14:12:39.624Z,7.80
2018-09-30T14:15:07.841Z,8.11
2018-09-30T14:17:36.120Z,9.51
2018-09-30T14:20:04.424Z,9.13
2018-09-30T14:22:32.576Z,8.91
2018-09-30T14:25:01.463Z,9.32
2018-09-30T14:27:29.778Z,9.15
2018-09-30T14:29:57.896Z,9.04
2018-09-30T14:32:26.092Z,10.10
2018-09-30T14:34:54.441Z,9.64
2018-09-30T14:37:22.590Z,10.10
2018-09-30T14:39:50.803Z,10.46
2018-09-30T14:42:18.923Z,9.79
2018-09-30T14:44:48.021Z,10.49
2018-09-30T14:47:17.131Z,11.43
2018-09-30T14:49:45.387Z,11.96
2018-09-30T14:52:13.697Z,13.85
2018-09-30T14:54:41.961Z,14.61
2018-09-30T14:57:10.280Z,15.77
2018-09-30T14:59:38.460Z,17.16
2018-09-30T15:02:06.781Z,18.65
2018-09-30T15:04:34.949Z,19.49
2018-09-30T15:07:03.305Z,21.21
2018-09-30T15:09:31.564Z,22.47
2018-09-30T15:11:59.835Z,22.87
2018-09-30T15:14:29.525Z,24.41
2018-09-30T15:16:57.760Z,24.97
2018-09-30T15:19:25.989Z,24.70
2018-09-30T15:21:54.159Z,24.58
2018-09-30T15:24:22.374Z,25.19
2018-09-30T15:26:50.541Z,25.63
2018-09-30T15:29:19.805Z,26.63
2018-09-30T15:31:47.969Z,27.25
2018-09-30T15:34:17.072Z,27.08
2018-09-30T15:36:45.298Z,26.78
2018-09-30T15:39:13.560Z,26.93
2018-09-30T15:41:41.955Z,27.56
2018-09-30T15:44:11.110Z,27.42
2018-09-30T15:46:39.400Z,28.33
2018-09-30T15:49:07.990Z,28.44
2018-09-30T15:51:36.160Z,28.62
2018-09-30T15:54:04.440Z,29.00
2018-09-30T15:56:32.679Z,28.85
2018-09-30T15:59:00.863Z,29.00
2018-09-30T16:01:28.998Z,28.88
2018-09-30T16:03:57.179Z,29.20
2018-09-30T16:06:25.395Z,29.89
2018-09-30T16:08:53.634Z,30.19
2018-09-30T16:11:21.790Z,31.20
2018-09-30T16:13:50.093Z,31.57
2018-09-30T16:16:19.100Z,31.61
2018-09-30T16:18:47.312Z,31.91
2018-09-30T16:21:15.898Z,33.46
2018-09-30T16:23:44.097Z,33.90
2018-09-30T16:26:12.247Z,34.13
2018-09-30T16:28:40.477Z,34.30
2018-09-30T16:31:09.153Z,35.13
2018-09-30T16:33:37.658Z,35.54
2018-09-30T16:36:06.835Z,36.03
2018-09-30T16:38:36.025Z,36.05
2018-09-30T16:41:04.285Z,36.55
2018-09-30T16:43:32.604Z,35.69
2018-09-30T16:46:00.877Z,36.95
2018-09-30T16:48:29.909Z,36.96
2018-09-30T16:50:58.927Z,38.03
2018-09-30T16:53:28.058Z,37.37
2018-09-30T16:55:56.408Z,37.93
2018-09-30T16:58:24.638Z,38.36
2018-09-30T17:00:52.831Z,39.28
2018-09-30T17:03:21.661Z,39.72
2018-09-30T17:05:52.041Z,40.49
2018-09-30T17:08:20.789Z,40.94
2018-09-30T17:10:49.077Z,41.90
2018-09-30T17:13:17.322Z,42.47
2018-09-30T17:15:45.666Z,42.17
2018-09-30T17:18:14.013Z,42.67
2018-09-30T17:20:43.126Z,42.58
2018-09-30T17:23:11.338Z,43.75
2018-09-30T17:25:39.598Z,43.78
2018-09-30T17:28:07.884Z,44.27
2018-09-30T17:30:36.138Z,44.72
2018-09-30T17:33:06.746Z,44.41
2018-09-30T17:35:36.320Z,44.86
2018-09-30T17:38:04.609Z,45.70
2018-09-30T17:40:32.911Z,46.64
2018-09-30T17:43:01.215Z,47.45
2018-09-30T17:45:29.429Z,47.04
2018-09-30T17:47:57.643Z,47.86
2018-09-30T17:50:26.008Z,47.90
2018-09-30T17:52:54.357Z,48.08
2018-09-30T17:55:23.260Z,48.15
2018-09-30T17:57:51.432Z,48.84
2018-09-30T18:00:19.629Z,49.88
2018-09-30T18:02:47.882Z,49.82
2018-09-30T18:05:16.079Z,49.48
2018-09-30T18:07:44.375Z,50.27
2018-09-30T18:10:12.510Z,49.87
2018-09-30T18:12:41.463Z,50.59
2018-09-30T18:15:09.653Z,50.71
2018-09-30T18:17:37.788Z,51.27
2018-09-30T18:20:06.700Z,51.52
2018-09-30T18:22:35.092Z,52.35
2018-09-30T18:25:03.431Z,52.98
2018-09-30T18:27:31.641Z,53.09
2018-09-30T18:29:59.889Z,53.38
2018-09-30T18:32:28.070Z,52.55
2018-09-30T18:34:56.395Z,53.87
2018-09-30T18:37:24.609Z,53.67
2018-09-30T18:39:52.845Z,53.76
2018-09-30T18:42:21.150Z,53.27
2018-09-30T18:44:49.404Z,53.25
2018-09-30T18:47:17.694Z,54.24
2018-09-30T18:49:45.875Z,53.83
2018-09-30T18:52:14.094Z,53.79
2018-09-30T18:54:42.304Z,54.69
2018-09-30T18:57:10.626Z,54.70
2018-09-30T18:59:38.855Z,55.86
2018-09-30T19:02:07.049Z,55.95
2018-09-30T19:04:35.287Z,56.25
2018-09-30T19:07:03.613Z,56.43
2018-09-30T19:09:31.811Z,56.67
2018-09-30T19:12:00.080Z,56.59
2018-09-30T19:14:28.268Z,57.54
2018-09-30T19:16:56.478Z,57.30
2018-09-30T19:19:25.216Z,58.19
2018-09-30T19:21:53.422Z,58.21
2018-09-30T19:24:21.566Z,57.65
2018-09-30T19:26:49.841Z,57.45
2018-09-30T19:29:19.140Z,56.53
2018-09-30T19:31:47.301Z,57.08
2018-09-30T19:34:15.574Z,57.95
2018-09-30T19:36:43.696Z,58.11
2018-09-30T19:39:12.183Z,58.02
2018-09-30T19:41:40.527Z,58.55
2018-09-30T19:44:08.774Z,58.83
2018-09-30T19:46:37.342Z,59.64
2018-09-30T19:49:05.595Z,59.28
2018-09-30T19:51:33.802Z,58.78
2018-09-30T19:54:02.083Z,59.49
2018-09-30T19:56:30.253Z,59.80
2018-09-30T19:58:58.535Z,59.91
2018-09-30T20:01:26.876Z,60.19
2018-09-30T20:03:55.070Z,59.72
2018-09-30T20:06:23.321Z,60.18
2018-09-30T20:08:51.524Z,60.44
2018-09-30T20:11:19.689Z,60.82
2018-09-30T20:13:47.821Z,61.12
2018-09-30T20:16:15.957Z,61.48
2018-09-30T20:18:44.183Z,61.76
2018-09-30T20:21:12.316Z,61.71
2018-09-30T20:23:40.467Z,62.16
2018-09-30T20:26:08.649Z,62.34
2018-09-30T20:28:37.045Z,63.04
2018-09-30T20:31:05.265Z,62.87
2018-09-30T20:33:33.583Z,63.43
2018-09-30T20:36:01.791Z,63.67
2018-09-30T20:38:30.043Z,64.16
2018-09-30T20:40:58.321Z,64.49
2018-09-30T20:43:26.577Z,64.09
2018-09-30T20:45:54.795Z,63.15
2018-09-30T20:48:23.605Z,62.85
2018-09-30T20:50:51.747Z,62.55
2018-09-30T20:53:20.001Z,62.10
2018-09-30T20:55:48.921Z,62.46
2018-09-30T20:58:17.143Z,62.60
2018-09-30T21:00:45.257Z,62.60
2018-09-30T21:03:13.471Z,62.38
2018-09-30T21:05:58.745Z,62.50
2018-09-30T21:08:26.969Z,63.19
2018-09-30T21:10:55.172Z,63.35
2018-09-30T21:13:23.359Z,64.10
2018-09-30T21:15:51.588Z,64.07
2018-09-30T21:18:19.749Z,64.48
2018-09-30T21:20:47.995Z,64.29
2018-09-30T21:23:16.152Z,64.10
2018-09-30T21:25:44.300Z,60.76
2018-09-30T21:28:12.645Z,60.50
2018-09-30T21:30:40.808Z,59.76
2018-09-30T21:33:09.016Z,59.65
2018-09-30T21:35:37.213Z,60.33
2018-09-30T21:38:05.500Z,61.39
2018-09-30T21:40:33.808Z,61.17
2018-09-30T21:43:02.027Z,61.87
2018-09-30T21:45:30.252Z,64.09
2018-09-30T21:47:59.120Z,63.97
2018-09-30T21:50:27.302Z,64.30
2018-09-30T21:52:55.554Z,65.02
2018-09-30T21:55:23.766Z,65.21
2018-09-30T21:57:52.012Z,65.46
2018-09-30T22:00:25.947Z,65.12
2018-09-30T22:02:54.176Z,65.46
2018-09-30T22:05:22.325Z,65.78
2018-09-30T22:07:50.676Z,65.47
2018-09-30T22:10:19.532Z,65.65
2018-09-30T22:12:47.716Z,65.75
2018-09-30T22:15:15.974Z,65.37
2018-09-30T22:17:44.210Z,67.42
2018-09-30T22:20:13.375Z,67.26
2018-09-30T22:22:41.591Z,67.57
2018-09-30T22:25:09.752Z,68.23
2018-09-30T22:27:38.146Z,67.59
2018-09-30T22:30:07.041Z,67.49
2018-09-30T22:32:35.152Z,67.98
2018-09-30T22:35:03.369Z,68.18
2018-09-30T22:37:31.660Z,67.98
2018-09-30T22:40:00.486Z,67.64
2018-09-30T22:42:35.737Z,67.44
2018-09-30T22:45:04.225Z,67.05
2018-09-30T22:47:32.394Z,67.46
2018-09-30T22:50:00.526Z,67.15
2018-09-30T22:52:28.767Z,68.19
2018-09-30T22:54:57.767Z,68.28
2018-09-30T22:57:26.684Z,67.69
2018-09-30T22:59:55.776Z,67.85
2018-09-30T23:02:24.023Z,67.77
2018-09-30T23:04:52.512Z,67.36
2018-09-30T23:07:20.644Z,66.94
2018-09-30T23:09:49.071Z,67.77
2018-09-30T23:12:17.275Z,68.58
2018-09-30T23:14:45.491Z,68.83
2018-09-30T23:17:13.775Z,69.21
2018-09-30T23:19:41.905Z,68.95
2018-09-30T23:22:10.108Z,67.88
2018-09-30T23:24:38.275Z,67.79
2018-09-30T23:27:06.505Z,67.59
2018-09-30T23:29:34.611Z,68.00
2018-09-30T23:32:02.825Z,69.42
2018-09-30T23:34:31.131Z,69.11
2018-09-30T23:36:59.343Z,69.75
2018-09-30T23:39:28.157Z,69.81
2018-09-30T23:41:56.402Z,70.52
2018-09-30T23:46:52.299Z,71.34
2018-09-30T23:49:20.533Z,70.61
2018-09-30T23:51:48.797Z,70.84
2018-09-30T23:54:17.015Z,71.36
2018-09-30T23:56:45.253Z,71.21
2018-09-30T23:59:13.453Z,70.50
